Time;durP1;ratioP1;P1;durP2;ratioP2;P2;SDS_P1;SDS_P2;PMS_P1;PMS_P2;Temp;Humidity;BMP_temperature;BMP_pressure;BME280_temperature;BME280_humidity;BME280_pressure;Samples;Min_cycle;Max_cycle;Signal;HPM_P1;HPM_P2
2022/09/20 00:01:09;;;;;;;11.70;1.30;;;11.70;99.90;;;;;;4975728;28;20047;-68
2022/09/20 00:03:40;;;;;;;5.97;0.90;;;11.70;99.90;;;;;;4974375;28;20059;-69
2022/09/20 00:06:09;;;;;;;8.95;1.00;;;11.70;99.90;;;;;;4974030;28;20478;-69
2022/09/20 00:08:35;;;;;;;5.90;0.90;;;11.60;99.90;;;;;;4973737;28;20065;-69
2022/09/20 00:11:25;;;;;;;6.88;0.77;;;11.60;99.90;;;;;;4975073;28;20493;-69
2022/09/20 00:13:53;;;;;;;8.43;1.10;;;11.60;99.90;;;;;;4975115;28;20494;-68
2022/09/20 00:16:25;;;;;;;11.45;1.27;;;11.70;99.90;;;;;;4974220;28;20046;-69
2022/09/20 00:18:53;;;;;;;6.10;1.15;;;11.70;99.90;;;;;;4974916;28;20039;-69
2022/09/20 00:21:26;;;;;;;9.95;1.05;;;11.70;99.90;;;;;;4974804;28;20479;-69
2022/09/20 00:23:52;;;;;;;7.43;1.30;;;11.70;99.90;;;;;;4975772;28;20047;-68
2022/09/20 00:26:19;;;;;;;6.75;1.00;;;11.70;99.90;;;;;;4975843;28;20094;-69
2022/09/20 00:28:45;;;;;;;7.40;1.10;;;11.60;99.90;;;;;;4975589;28;20047;-69
2022/09/20 00:31:12;;;;;;;5.10;1.00;;;11.70;99.90;;;;;;4974730;28;20050;-70
2022/09/20 00:36:22;;;;;;;10.60;1.35;;;11.60;99.90;;;;;;4975060;28;20049;-69
2022/09/20 00:38:48;;;;;;;5.85;1.27;;;11.90;99.90;;;;;;4974402;28;20055;-69
2022/09/20 00:41:14;;;;;;;6.38;1.42;;;11.60;99.90;;;;;;4975962;28;20133;-69
2022/09/20 00:43:45;;;;;;;6.32;0.93;;;11.60;99.90;;;;;;4974812;28;20130;-69
2022/09/20 00:46:25;;;;;;;9.98;1.10;;;11.60;99.90;;;;;;4975129;28;20391;-69
2022/09/20 00:48:54;;;;;;;7.28;1.55;;;11.60;99.90;;;;;;4975133;28;20039;-69
2022/09/20 00:51:33;;;;;;;5.32;1.08;;;11.60;99.90;;;;;;4975835;28;20187;-69
2022/09/20 00:54:02;;;;;;;6.43;1.30;;;11.80;99.90;;;;;;4975105;28;20058;-69
2022/09/20 00:56:31;;;;;;;9.32;1.23;;;11.50;99.90;;;;;;4974928;28;20042;-69
2022/09/20 00:59:21;;;;;;;4.40;1.00;;;11.50;99.90;;;;;;4974970;28;20054;-69
2022/09/20 01:01:52;;;;;;;9.18;1.50;;;11.50;99.90;;;;;;4974871;28;20050;-69
2022/09/20 01:04:22;;;;;;;4.03;1.20;;;11.50;99.90;;;;;;4975555;28;20051;-69
2022/09/20 01:06:50;;;;;;;3.90;1.02;;;11.80;99.90;;;;;;4974915;28;20043;-69
2022/09/20 01:09:16;;;;;;;2.80;1.00;;;11.40;99.90;;;;;;4974880;28;20043;-70
2022/09/20 01:11:42;;;;;;;5.22;0.95;;;11.40;99.90;;;;;;4974722;28;20073;-69
2022/09/20 01:14:08;;;;;;;5.18;0.90;;;11.40;99.90;;;;;;4973920;28;20364;-69
2022/09/20 01:16:34;;;;;;;4.95;1.20;;;11.20;99.90;;;;;;4958352;28;20426;-69
2022/09/20 01:19:11;;;;;;;4.40;1.25;;;11.20;99.90;;;;;;4957637;28;20061;-69
2022/09/20 01:21:37;;;;;;;8.18;1.10;;;11.10;99.90;;;;;;4973894;28;20046;-68
2022/09/20 01:24:21;;;;;;;6.22;1.05;;;11.10;99.90;;;;;;4974314;28;20378;-69
2022/09/20 01:27:14;;;;;;;6.68;0.95;;;11.30;99.90;;;;;;4974369;28;20050;-69
2022/09/20 01:30:07;;;;;;;8.52;0.95;;;11.20;99.90;;;;;;4974706;28;20134;-69
2022/09/20 01:32:53;;;;;;;4.60;1.00;;;11.10;99.90;;;;;;4975346;28;20043;-68
2022/09/20 01:35:22;;;;;;;3.38;1.00;;;11.00;99.90;;;;;;4944169;28;20395;-68
2022/09/20 01:38:15;;;;;;;6.60;0.90;;;11.10;99.90;;;;;;4974605;28;20054;-69
2022/09/20 01:41:35;;;;;;;5.13;0.88;;;11.20;99.90;;;;;;4975126;28;20047;-69
2022/09/20 01:44:17;;;;;;;8.35;1.10;;;11.10;99.90;;;;;;4971202;28;20410;-69
2022/09/20 01:46:44;;;;;;;7.13;1.00;;;11.10;99.90;;;;;;4974526;28;20254;-69
2022/09/20 01:49:10;;;;;;;6.22;1.08;;;11.30;99.90;;;;;;4957125;28;20535;-69
2022/09/20 01:51:57;;;;;;;9.32;0.90;;;11.10;99.90;;;;;;4974381;28;20181;-69
2022/09/20 01:54:46;;;;;;;6.88;1.13;;;11.00;99.90;;;;;;4974484;28;20129;-69
2022/09/20 01:57:29;;;;;;;3.08;0.90;;;11.00;99.90;;;;;;4973481;28;20046;-68
2022/09/20 02:00:13;;;;;;;5.93;0.90;;;11.00;99.90;;;;;;4975210;28;20047;-68
2022/09/20 02:02:39;;;;;;;5.20;0.85;;;11.00;99.90;;;;;;4973197;28;20082;-69
2022/09/20 02:05:17;;;;;;;6.30;1.40;;;11.20;99.90;;;;;;4973944;28;20082;-69
2022/09/20 02:08:08;;;;;;;2.97;0.85;;;11.00;99.90;;;;;;4974237;28;20039;-69
2022/09/20 02:10:36;;;;;;;5.55;1.10;;;11.10;99.90;;;;;;4974603;28;20375;-68
2022/09/20 02:13:06;;;;;;;4.82;1.40;;;11.00;99.90;;;;;;4974559;28;20436;-69
2022/09/20 02:15:53;;;;;;;5.78;1.17;;;11.00;99.90;;;;;;4974684;28;20058;-68
2022/09/20 02:18:30;;;;;;;7.95;1.10;;;11.00;99.90;;;;;;4978307;28;20053;-69
2022/09/20 02:21:20;;;;;;;2.90;0.70;;;11.00;99.90;;;;;;4978446;28;20375;-69
2022/09/20 02:24:11;;;;;;;2.97;0.80;;;10.90;99.90;;;;;;4976721;28;20507;-69
2022/09/20 02:27:04;;;;;;;3.05;0.90;;;10.90;99.90;;;;;;4977497;28;20050;-68
2022/09/20 02:29:30;;;;;;;5.85;1.00;;;10.90;99.90;;;;;;4977557;28;20081;-69
2022/09/20 02:32:14;;;;;;;4.88;1.20;;;10.90;99.90;;;;;;4976192;28;20050;-68
2022/09/20 02:35:05;;;;;;;6.10;1.10;;;11.10;99.90;;;;;;4976200;28;20129;-68
2022/09/20 02:38:14;;;;;;;3.00;0.70;;;10.90;99.90;;;;;;4977847;28;20065;-69
2022/09/20 02:41:11;;;;;;;3.08;0.90;;;10.90;99.90;;;;;;4974220;28;20055;-68
2022/09/20 02:44:01;;;;;;;3.08;0.77;;;10.80;99.90;;;;;;4976141;28;20047;-68
2022/09/20 02:46:56;;;;;;;4.72;0.80;;;10.80;99.90;;;;;;4977482;28;20414;-69
2022/09/20 02:49:41;;;;;;;6.07;0.93;;;10.80;99.90;;;;;;4977230;28;20054;-68
2022/09/20 02:52:26;;;;;;;5.95;0.80;;;10.70;99.90;;;;;;4977648;28;20086;-69
2022/09/20 02:55:12;;;;;;;4.03;0.80;;;10.70;99.90;;;;;;4977683;28;20047;-68
2022/09/20 02:57:58;;;;;;;6.55;1.15;;;10.70;99.90;;;;;;4977001;28;20043;-68
2022/09/20 03:00:58;;;;;;;3.83;1.05;;;10.60;99.90;;;;;;4976947;28;20047;-68
2022/09/20 03:03:56;;;;;;;7.32;1.17;;;10.60;99.90;;;;;;4976017;28;20061;-68
2022/09/20 03:06:28;;;;;;;2.08;0.75;;;10.50;99.90;;;;;;4977680;28;20047;-68
2022/09/20 03:09:31;;;;;;;4.50;0.90;;;10.30;99.90;;;;;;4976905;28;20143;-68
2022/09/20 03:12:17;;;;;;;5.93;0.60;;;10.40;99.90;;;;;;4976791;28;20402;-69
2022/09/20 03:14:58;;;;;;;6.38;1.08;;;10.30;99.90;;;;;;4977519;28;20129;-68
2022/09/20 03:17:51;;;;;;;2.60;0.68;;;10.20;99.90;;;;;;4976043;28;20081;-68
2022/09/20 03:20:44;;;;;;;4.40;0.90;;;10.20;99.90;;;;;;4976683;28;20046;-68
2022/09/20 03:23:48;;;;;;;5.55;0.98;;;10.10;99.90;;;;;;4977160;28;20065;-69
2022/09/20 03:26:33;;;;;;;;;;;10.00;99.90;;;;;;4977455;28;20073;-68
2022/09/20 03:29:35;;;;;;;7.40;0.80;;;9.90;99.90;;;;;;4959086;28;19922;-68
2022/09/20 03:32:25;;;;;;;5.80;0.80;;;9.80;99.90;;;;;;4976335;28;20089;-68
2022/09/20 03:35:05;;;;;;;6.20;0.80;;;9.80;99.90;;;;;;4976288;28;20061;-68
2022/09/20 03:37:36;;;;;;;6.47;0.82;;;9.70;99.90;;;;;;4976231;28;20047;-68
2022/09/20 03:40:23;;;;;;;2.75;0.90;;;10.20;99.90;;;;;;4976214;28;20050;-68
2022/09/20 03:42:53;;;;;;;5.28;0.70;;;9.70;99.90;;;;;;4976704;28;20054;-68
2022/09/20 03:45:21;;;;;;;3.03;0.85;;;9.80;99.90;;;;;;4974976;28;20101;-68
2022/09/20 03:48:08;;;;;;;4.90;0.90;;;9.70;99.90;;;;;;4976798;28;20140;-68
2022/09/20 03:50:44;;;;;;;6.75;1.27;;;9.60;99.90;;;;;;4975811;28;20077;-68
2022/09/20 03:53:45;;;;;;;4.20;0.82;;;9.70;99.90;;;;;;4976025;28;20047;-67
2022/09/20 03:56:29;;;;;;;5.45;0.60;;;9.60;99.90;;;;;;4976027;28;20565;-71
2022/09/20 03:59:24;;;;;;;4.22;0.80;;;9.80;99.90;;;;;;4976609;28;20046;-69
2022/09/20 04:02:20;;;;;;;4.05;0.80;;;9.50;99.90;;;;;;4975336;28;20051;-70
2022/09/20 04:04:50;;;;;;;6.20;0.65;;;9.70;99.90;;;;;;4975840;28;20050;-69
2022/09/20 04:07:34;;;;;;;5.13;0.90;;;9.50;99.90;;;;;;4974816;28;20456;-69
2022/09/20 04:10:17;;;;;;;4.50;0.77;;;9.50;99.90;;;;;;4975564;28;20141;-69
2022/09/20 04:12:43;;;;;;;;;;;9.50;99.90;;;;;;4976055;28;20097;-69
2022/09/20 04:15:12;;;;;;;5.00;1.00;;;9.70;99.90;;;;;;4974434;28;19922;-69
2022/09/20 04:17:56;;;;;;;7.60;0.90;;;9.40;99.90;;;;;;4975407;28;20047;-69
2022/09/20 04:20:35;;;;;;;2.20;0.80;;;9.80;99.90;;;;;;4975678;28;20508;-69
2022/09/20 04:23:13;;;;;;;4.45;0.80;;;9.70;99.90;;;;;;4975550;28;20059;-69
2022/09/20 04:25:45;;;;;;;5.45;0.90;;;9.70;99.90;;;;;;4976262;28;20144;-69
2022/09/20 04:28:18;;;;;;;3.13;0.95;;;10.20;99.90;;;;;;4976031;28;20466;-70
2022/09/20 04:30:45;;;;;;;3.33;0.68;;;9.40;99.90;;;;;;4974404;28;20479;-69
2022/09/20 04:33:33;;;;;;;4.45;0.70;;;9.20;99.90;;;;;;4959195;28;20073;-69
2022/09/20 04:39:09;;;;;;;2.80;0.80;;;9.20;99.90;;;;;;4974788;28;20090;-69
2022/09/20 04:41:56;;;;;;;5.22;0.80;;;9.00;99.90;;;;;;4975716;28;20085;-69
2022/09/20 04:45:02;;;;;;;3.05;1.00;;;9.10;99.90;;;;;;4958056;28;20379;-70
2022/09/20 04:47:37;;;;;;;3.60;0.80;;;8.90;99.90;;;;;;4965578;28;20481;-70
2022/09/20 04:50:28;;;;;;;3.20;0.70;;;8.90;99.90;;;;;;4973847;28;20089;-69
2022/09/20 04:53:20;;;;;;;3.95;0.82;;;9.00;99.90;;;;;;4974994;28;20046;-69
2022/09/20 04:56:08;;;;;;;4.60;1.00;;;9.10;99.90;;;;;;4974950;28;20138;-69
2022/09/20 04:58:45;;;;;;;4.38;1.15;;;8.80;99.90;;;;;;4973865;28;20042;-70
2022/09/20 05:01:18;;;;;;;4.22;0.60;;;8.90;99.90;;;;;;4975617;28;20042;-69
2022/09/20 05:04:05;;;;;;;5.20;0.75;;;9.10;99.90;;;;;;4974296;28;20129;-69
2022/09/20 05:06:49;;;;;;;2.22;0.75;;;8.90;99.90;;;;;;4973687;28;20086;-70
2022/09/20 05:09:45;;;;;;;5.78;0.65;;;9.00;99.90;;;;;;4975452;28;20051;-69
2022/09/20 05:12:30;;;;;;;3.85;0.93;;;8.80;99.90;;;;;;4974498;28;20521;-69
2022/09/20 05:14:58;;;;;;;4.72;0.80;;;8.90;99.90;;;;;;4974419;28;20102;-70
2022/09/20 05:17:43;;;;;;;6.90;0.82;;;8.90;99.90;;;;;;4974656;28;20039;-69
2022/09/20 05:20:34;;;;;;;2.75;0.73;;;8.70;99.90;;;;;;4974197;28;20054;-69
2022/09/20 05:23:03;;;;;;;5.70;0.80;;;8.80;99.90;;;;;;4974726;28;20069;-70
2022/09/20 05:25:57;;;;;;;2.13;0.77;;;8.80;99.90;;;;;;4974655;28;20053;-70
2022/09/20 05:28:45;;;;;;;4.32;0.90;;;8.30;99.90;;;;;;4973426;28;20055;-70
2022/09/20 05:31:24;;;;;;;5.43;1.08;;;8.70;99.90;;;;;;4975103;28;20043;-69
2022/09/20 05:34:09;;;;;;;3.55;0.95;;;8.80;99.90;;;;;;4974793;28;20051;-69
2022/09/20 05:36:57;;;;;;;4.18;0.70;;;8.60;99.90;;;;;;4974461;28;20054;-69
2022/09/20 05:39:43;;;;;;;3.65;0.82;;;8.80;99.90;;;;;;4973887;28;20058;-70
2022/09/20 05:42:17;;;;;;;2.20;1.05;;;9.20;99.90;;;;;;4964857;28;20059;-69
2022/09/20 05:45:01;;;;;;;4.43;0.80;;;8.60;99.90;;;;;;4974777;28;20043;-69
2022/09/20 05:47:53;;;;;;;4.43;0.82;;;8.60;99.90;;;;;;4974116;28;20509;-69
2022/09/20 05:50:33;;;;;;;3.67;0.85;;;8.70;99.90;;;;;;4975043;28;20383;-70
2022/09/20 05:53:01;;;;;;;6.18;1.08;;;9.00;99.90;;;;;;4979043;28;20400;-69
2022/09/20 05:56:01;;;;;;;3.95;0.73;;;8.90;99.90;;;;;;4976894;28;20043;-69
2022/09/20 05:59:04;;;;;;;7.15;1.15;;;8.60;99.90;;;;;;4978339;28;20061;-69
2022/09/20 06:01:36;;;;;;;4.50;0.80;;;8.60;99.90;;;;;;4976773;28;20054;-69
2022/09/20 06:04:25;;;;;;;3.25;1.13;;;8.50;99.90;;;;;;4977966;28;20049;-69
2022/09/20 06:07:31;;;;;;;4.78;1.00;;;8.60;99.90;;;;;;4978253;28;20402;-69
2022/09/20 06:10:24;;;;;;;3.03;0.90;;;8.60;99.90;;;;;;4918072;29;20049;-69
2022/09/20 06:13:23;;;;;;;4.25;0.90;;;8.70;99.90;;;;;;4976974;28;20109;-70
2022/09/20 06:16:05;;;;;;;2.70;0.90;;;8.90;99.90;;;;;;4977803;28;20090;-69
2022/09/20 06:18:46;;;;;;;3.43;0.83;;;8.90;99.90;;;;;;4978383;28;20046;-69
2022/09/20 06:21:41;;;;;;;5.85;1.20;;;9.00;99.90;;;;;;4978401;28;20050;-69
2022/09/20 06:24:20;;;;;;;4.32;1.15;;;8.90;99.90;;;;;;4977743;28;20043;-69
2022/09/20 06:26:51;;;;;;;6.40;1.00;;;8.90;99.90;;;;;;4977690;28;20348;-69
2022/09/20 06:29:24;;;;;;;7.45;1.48;;;8.90;99.90;;;;;;4977619;28;20049;-69
2022/09/20 06:31:52;;;;;;;6.10;1.17;;;9.20;99.90;;;;;;4976470;28;20057;-69
2022/09/20 06:34:18;;;;;;;2.90;1.00;;;9.10;99.90;;;;;;4978032;28;20137;-69
2022/09/20 06:42:32;;;;;;;4.95;1.15;;;9.10;99.90;;;;;;4976336;28;20498;-69
2022/09/20 06:44:58;;;;;;;2.35;1.00;;;9.10;99.90;;;;;;4977523;28;20085;-69
2022/09/20 06:47:25;;;;;;;4.43;1.02;;;9.40;99.90;;;;;;4976291;28;20050;-69
2022/09/20 06:49:50;;;;;;;3.53;1.00;;;9.30;99.90;;;;;;4976625;28;20043;-69
2022/09/20 06:52:18;;;;;;;3.05;1.00;;;9.20;99.90;;;;;;4976046;28;20043;-70
2022/09/20 06:54:45;;;;;;;3.08;1.10;;;9.30;99.90;;;;;;4976221;28;20060;-70
2022/09/20 06:57:18;;;;;;;4.60;0.95;;;9.60;99.90;;;;;;4977101;28;20047;-69
2022/09/20 06:59:44;;;;;;;3.67;0.98;;;9.50;99.90;;;;;;4977720;28;20141;-69
2022/09/20 07:02:10;;;;;;;3.53;1.08;;;9.60;99.90;;;;;;4975260;28;20063;-69
2022/09/20 07:04:36;;;;;;;4.05;1.20;;;9.90;99.90;;;;;;4975922;28;20105;-69
2022/09/20 07:07:04;;;;;;;3.72;1.00;;;10.00;99.90;;;;;;4959702;28;20050;-69
2022/09/20 07:09:30;;;;;;;5.50;1.40;;;9.90;99.90;;;;;;4976779;28;20043;-69
2022/09/20 07:11:58;;;;;;;2.63;1.05;;;10.00;99.90;;;;;;4976041;28;20050;-69
2022/09/20 07:14:25;;;;;;;3.95;1.08;;;10.00;99.90;;;;;;4976701;28;20053;-69
2022/09/20 07:16:54;;;;;;;3.45;1.00;;;10.00;99.90;;;;;;4975367;28;20064;-69
2022/09/20 07:19:21;;;;;;;5.07;1.17;;;10.20;99.90;;;;;;4976561;28;20195;-69
2022/09/20 07:21:47;;;;;;;7.72;1.30;;;10.30;99.90;;;;;;4975349;28;20053;-68
2022/09/20 07:24:13;;;;;;;6.75;0.90;;;10.20;99.90;;;;;;4976252;28;20051;-69
2022/09/20 07:26:53;;;;;;;2.28;0.90;;;10.30;99.90;;;;;;4976398;28;20051;-69
2022/09/20 07:29:19;;;;;;;10.93;2.58;;;10.40;99.90;;;;;;4976284;28;20395;-69
2022/09/20 07:31:44;;;;;;;8.15;1.42;;;10.40;99.90;;;;;;4976280;28;20054;-68
2022/09/20 07:34:10;;;;;;;6.97;1.30;;;10.50;99.90;;;;;;4976243;28;20059;-69
2022/09/20 07:36:36;;;;;;;3.83;1.20;;;10.50;99.90;;;;;;4975088;28;20054;-68
2022/09/20 07:39:01;;;;;;;4.55;1.70;;;10.60;99.90;;;;;;4976794;28;20133;-70
2022/09/20 07:41:29;;;;;;;2.92;0.80;;;10.90;99.90;;;;;;4976263;28;20061;-69
2022/09/20 07:44:19;;;;;;;3.28;0.80;;;10.70;99.90;;;;;;4978543;28;20050;-68
2022/09/20 07:46:40;;;;;;;5.85;0.85;;;10.70;99.90;;;;;;4976513;28;20055;-69
2022/09/20 07:49:06;;;;;;;2.78;0.70;;;10.80;99.90;;;;;;4976450;28;20053;-69
2022/09/20 07:51:31;;;;;;;3.10;0.50;;;10.80;99.90;;;;;;4975110;28;20043;-70
2022/09/20 07:53:57;;;;;;;5.13;0.80;;;11.10;99.90;;;;;;4976094;28;20102;-69
2022/09/20 07:56:23;;;;;;;3.70;1.00;;;11.10;99.90;;;;;;4977629;28;20078;-71
2022/09/20 07:58:48;;;;;;;2.28;0.60;;;10.90;99.90;;;;;;4975749;28;20049;-70
2022/09/20 08:01:14;;;;;;;1.73;0.70;;;11.10;99.90;;;;;;4975047;28;20055;-71
2022/09/20 08:03:41;;;;;;;3.72;0.70;;;11.00;99.90;;;;;;4975892;28;20081;-70
2022/09/20 08:06:10;;;;;;;6.00;0.80;;;11.00;99.90;;;;;;4976140;28;20391;-71
2022/09/20 08:08:37;;;;;;;2.70;0.50;;;11.10;99.90;;;;;;4975868;28;20132;-70
2022/09/20 08:11:13;;;;;;;2.42;0.50;;;11.50;99.90;;;;;;4975810;28;20055;-70
2022/09/20 08:13:40;;;;;;;1.35;0.45;;;11.20;99.90;;;;;;4975089;28;20047;-70
2022/09/20 08:16:09;;;;;;;2.63;0.50;;;11.10;99.90;;;;;;4975604;28;20565;-69
2022/09/20 08:18:35;;;;;;;4.97;0.55;;;11.70;99.90;;;;;;4975655;28;20047;-70
2022/09/20 08:21:07;;;;;;;2.97;0.57;;;11.20;99.90;;;;;;4975619;28;20097;-71
2022/09/20 08:23:37;;;;;;;1.35;0.35;;;11.30;99.90;;;;;;4974376;28;20051;-70
2022/09/20 08:26:04;;;;;;;5.22;0.77;;;11.30;99.90;;;;;;4974147;28;20047;-73
2022/09/20 08:28:31;;;;;;;3.70;0.40;;;11.40;99.90;;;;;;4974353;28;20054;-68
2022/09/20 08:31:04;;;;;;;2.88;0.40;;;11.40;99.90;;;;;;4974239;28;20042;-70
2022/09/20 08:33:30;;;;;;;;;;;11.50;99.90;;;;;;4975557;28;20054;-70
2022/09/20 08:35:56;;;;;;;4.25;0.80;;;11.50;99.90;;;;;;4975341;28;20021;-69
2022/09/20 08:38:25;;;;;;;4.20;0.50;;;11.60;99.90;;;;;;4975298;28;20486;-70
2022/09/20 08:40:58;;;;;;;2.75;0.43;;;11.70;99.90;;;;;;4958671;28;20053;-70
2022/09/20 08:43:28;;;;;;;4.30;0.60;;;11.80;99.90;;;;;;4974783;28;20101;-71
2022/09/20 08:45:58;;;;;;;2.88;0.80;;;11.70;99.90;;;;;;4973987;28;20050;-68
2022/09/20 08:48:31;;;;;;;2.15;0.30;;;11.90;99.90;;;;;;4974064;28;20086;-68
2022/09/20 08:50:56;;;;;;;;;;;11.90;99.90;;;;;;4975003;28;20047;-69
2022/09/20 08:53:22;;;;;;;1.95;0.40;;;12.00;99.90;;;;;;4975124;28;20052;-68
2022/09/20 08:55:48;;;;;;;3.65;0.40;;;12.00;99.90;;;;;;4974012;28;20105;-68
2022/09/20 08:58:13;;;;;;;5.15;0.50;;;12.30;99.90;;;;;;4974757;28;20047;-69
2022/09/20 09:00:42;;;;;;;2.08;0.32;;;12.20;99.90;;;;;;4975005;28;20209;-68
2022/09/20 09:03:13;;;;;;;2.17;0.40;;;12.20;99.90;;;;;;4973852;28;20057;-69
2022/09/20 09:05:46;;;;;;;5.22;0.60;;;12.20;99.90;;;;;;4974713;28;20089;-68
2022/09/20 09:08:24;;;;;;;2.70;0.40;;;12.20;99.90;;;;;;4975002;28;20042;-68
2022/09/20 09:10:58;;;;;;;3.63;0.40;;;12.30;99.90;;;;;;4973578;28;20519;-69
2022/09/20 09:13:27;;;;;;;2.10;0.32;;;12.30;99.90;;;;;;4975190;28;20510;-68
2022/09/20 09:16:00;;;;;;;5.38;0.50;;;12.40;99.90;;;;;;4974783;28;20058;-69
2022/09/20 09:18:35;;;;;;;2.58;0.65;;;12.40;99.90;;;;;;4974761;28;20062;-70
2022/09/20 09:21:04;;;;;;;3.33;0.30;;;12.50;99.90;;;;;;4974922;28;20047;-69
2022/09/20 09:23:39;;;;;;;0.93;0.43;;;12.50;99.90;;;;;;4975395;28;20062;-70
2022/09/20 09:26:15;;;;;;;1.80;0.40;;;12.60;99.90;;;;;;4978591;28;20379;-69
2022/09/20 09:28:40;;;;;;;1.58;0.30;;;12.60;99.90;;;;;;4978490;28;20115;-69
2022/09/20 09:31:24;;;;;;;2.55;0.40;;;12.80;99.90;;;;;;4977548;28;20050;-69
2022/09/20 09:33:50;;;;;;;3.17;0.40;;;12.90;99.90;;;;;;4961254;28;20051;-68
2022/09/20 09:36:22;;;;;;;2.55;0.30;;;13.10;99.90;;;;;;4978598;28;20053;-73
2022/09/20 09:38:48;;;;;;;3.00;0.57;;;13.00;99.90;;;;;;4978616;28;20053;-74
2022/09/20 09:41:19;;;;;;;3.83;0.30;;;12.70;99.90;;;;;;4978567;28;20459;-74
2022/09/20 09:44:00;;;;;;;3.80;0.40;;;13.00;99.90;;;;;;4978709;28;20125;-74
2022/09/20 09:46:30;;;;;;;1.27;0.40;;;12.80;99.90;;;;;;4961954;28;20057;-73
2022/09/20 09:49:14;;;;;;;2.47;0.40;;;12.90;99.90;;;;;;4978188;28;20043;-73
2022/09/20 09:51:41;;;;;;;2.88;0.40;;;12.90;99.90;;;;;;4978631;28;20069;-73
2022/09/20 09:54:16;;;;;;;2.33;0.50;;;12.80;99.90;;;;;;4977377;28;20054;-74
2022/09/20 09:57:03;;;;;;;1.98;0.40;;;12.80;99.90;;;;;;4978036;28;20487;-74
2022/09/20 09:59:29;;;;;;;1.30;0.30;;;12.60;99.90;;;;;;4979063;28;20053;-73
2022/09/20 10:01:57;;;;;;;0.90;0.20;;;12.60;99.90;;;;;;4978108;28;20051;-73
2022/09/20 10:04:39;;;;;;;1.02;0.20;;;12.70;99.90;;;;;;4978134;28;20053;-74
2022/09/20 10:07:20;;;;;;;2.17;0.20;;;12.70;99.90;;;;;;4978120;28;20130;-73
2022/09/20 10:10:04;;;;;;;1.30;0.30;;;12.60;99.90;;;;;;4978366;28;20046;-72
2022/09/20 10:12:47;;;;;;;3.03;0.30;;;13.00;99.90;;;;;;4978598;28;20058;-75
2022/09/20 10:15:43;;;;;;;3.38;0.30;;;13.20;99.90;;;;;;4977831;28;20051;-75
2022/09/20 10:18:11;;;;;;;1.67;0.30;;;13.20;99.90;;;;;;4977537;28;20458;-75
2022/09/20 10:20:40;;;;;;;1.10;0.25;;;13.60;99.90;;;;;;4977672;28;20442;-73
2022/09/20 10:23:25;;;;;;;1.80;0.40;;;13.30;99.90;;;;;;4978271;28;20493;-74
2022/09/20 10:26:06;;;;;;;2.08;0.30;;;13.30;99.90;;;;;;4978905;28;20502;-74
2022/09/20 10:28:50;;;;;;;1.55;0.40;;;13.50;99.90;;;;;;4979100;28;20094;-72
2022/09/20 10:31:24;;;;;;;3.63;0.30;;;13.70;99.90;;;;;;4977333;28;20050;-74
2022/09/20 10:34:08;;;;;;;2.70;0.40;;;13.50;99.90;;;;;;4976766;28;20050;-75
2022/09/20 10:36:49;;;;;;;3.08;0.30;;;13.60;99.90;;;;;;4976957;28;20077;-75
2022/09/20 10:39:35;;;;;;;1.88;0.55;;;13.60;99.90;;;;;;4976061;28;20050;-75
2022/09/20 10:45:23;;;;;;;3.92;0.63;;;13.40;99.90;;;;;;4975969;28;20556;-74
2022/09/20 10:48:02;;;;;;;3.75;0.43;;;13.50;99.90;;;;;;4976944;28;20398;-75
2022/09/20 10:50:45;;;;;;;3.22;0.25;;;13.60;99.90;;;;;;4977081;28;20454;-76
2022/09/20 10:53:37;;;;;;;2.35;0.40;;;13.50;99.90;;;;;;4976780;28;20047;-75
2022/09/20 10:56:08;;;;;;;3.05;0.40;;;13.50;99.90;;;;;;4976770;28;20123;-75
2022/09/20 10:58:42;;;;;;;1.48;0.30;;;13.60;99.90;;;;;;4976507;28;20508;-75
2022/09/20 11:01:30;;;;;;;3.53;0.40;;;13.50;99.90;;;;;;4977238;28;20057;-75
2022/09/20 11:04:31;;;;;;;0.95;0.40;;;13.70;99.90;;;;;;4976616;28;20502;-75
2022/09/20 11:07:18;;;;;;;3.47;0.50;;;13.60;99.90;;;;;;4976861;28;20038;-75
2022/09/20 11:09:50;;;;;;;1.38;0.50;;;13.60;99.90;;;;;;4976525;28;20047;-75
2022/09/20 11:12:33;;;;;;;4.07;0.53;;;13.60;99.90;;;;;;4976323;28;20085;-76
2022/09/20 11:15:03;;;;;;;;;;;13.70;99.90;;;;;;4960104;28;20542;-76
2022/09/20 11:17:34;;;;;;;3.90;0.40;;;13.70;99.90;;;;;;4976289;28;19926;-75
2022/09/20 11:20:21;;;;;;;4.00;0.50;;;13.80;99.90;;;;;;4959611;28;20090;-76
2022/09/20 11:22:54;;;;;;;2.03;0.40;;;13.90;99.90;;;;;;4976381;28;20054;-75
2022/09/20 11:25:42;;;;;;;1.38;0.30;;;13.80;99.90;;;;;;4976463;28;20054;-76
2022/09/20 11:28:25;;;;;;;2.45;0.57;;;14.00;99.90;;;;;;4975936;28;20557;-76
2022/09/20 11:31:09;;;;;;;3.47;0.70;;;13.90;99.90;;;;;;4976670;28;20074;-75
2022/09/20 11:33:51;;;;;;;2.78;0.52;;;14.30;99.90;;;;;;4976612;28;20128;-75
2022/09/20 11:36:30;;;;;;;4.40;0.30;;;14.30;99.90;;;;;;4976536;28;20043;-75
2022/09/20 11:39:02;;;;;;;3.22;0.40;;;14.20;99.90;;;;;;4975104;28;20043;-75
2022/09/20 11:41:30;;;;;;;1.95;0.45;;;14.40;99.90;;;;;;4976529;28;20066;-76
2022/09/20 11:44:02;;;;;;;3.50;0.35;;;14.40;99.90;;;;;;4975837;28;20403;-74
2022/09/20 11:46:34;;;;;;;1.42;0.25;;;14.50;99.90;;;;;;4975953;28;20046;-76
2022/09/20 11:49:22;;;;;;;3.33;0.45;;;14.60;99.90;;;;;;4975004;28;20477;-75
2022/09/20 11:52:33;;;;;;;1.65;0.30;;;14.80;99.90;;;;;;4974582;28;20086;-75
2022/09/20 11:55:26;;;;;;;3.33;0.45;;;14.70;99.90;;;;;;4936967;28;20050;-74
2022/09/20 11:58:06;;;;;;;4.38;0.50;;;14.70;99.90;;;;;;4976124;28;20141;-73
2022/09/20 12:00:35;;;;;;;3.92;0.47;;;14.60;99.90;;;;;;4975877;28;20126;-73
2022/09/20 12:03:02;;;;;;;3.65;0.47;;;14.70;99.90;;;;;;4975979;28;20061;-73
2022/09/20 12:05:34;;;;;;;4.15;0.50;;;14.60;99.90;;;;;;4974293;28;20090;-73
2022/09/20 12:08:03;;;;;;;3.33;0.40;;;14.60;99.90;;;;;;4974568;28;20276;-74
2022/09/20 12:10:39;;;;;;;2.47;0.40;;;14.70;99.90;;;;;;4974158;28;20047;-73
2022/09/20 12:13:17;;;;;;;5.10;0.40;;;14.60;99.90;;;;;;4975899;28;20054;-73
2022/09/20 12:15:43;;;;;;;2.40;0.40;;;14.70;99.90;;;;;;4975282;28;20094;-73
2022/09/20 12:18:31;;;;;;;3.75;0.40;;;14.50;99.90;;;;;;4975110;28;20104;-72
2022/09/20 12:21:10;;;;;;;2.63;0.40;;;14.80;99.90;;;;;;4973930;28;20050;-72
2022/09/20 12:23:41;;;;;;;3.53;0.63;;;14.60;99.90;;;;;;4974991;28;20486;-71
2022/09/20 12:26:12;;;;;;;3.92;0.40;;;14.70;99.90;;;;;;4973985;28;20091;-72
2022/09/20 12:28:41;;;;;;;5.63;0.60;;;14.80;99.90;;;;;;4975333;28;20059;-72
2022/09/20 12:31:24;;;;;;;4.80;0.50;;;14.80;99.90;;;;;;4973554;28;20517;-73
2022/09/20 12:34:14;;;;;;;4.20;0.40;;;14.80;99.90;;;;;;4974988;28;20483;-73
2022/09/20 12:36:55;;;;;;;3.03;0.45;;;14.80;99.90;;;;;;4973581;28;20055;-74
2022/09/20 12:39:33;;;;;;;5.35;0.45;;;14.70;99.90;;;;;;4974170;28;20054;-74
2022/09/20 12:42:10;;;;;;;4.45;0.55;;;14.60;99.90;;;;;;4975469;28;20039;-73
2022/09/20 12:44:39;;;;;;;9.32;0.50;;;14.60;99.90;;;;;;4974483;28;20062;-72
2022/09/20 12:47:11;;;;;;;2.17;0.60;;;14.50;99.90;;;;;;4975421;28;20038;-74
2022/09/20 12:53:02;;;;;;;2.53;0.60;;;14.50;99.90;;;;;;4975698;28;20097;-73
2022/09/20 12:55:28;;;;;;;4.15;0.70;;;14.20;99.90;;;;;;4974990;28;20046;-73
2022/09/20 13:00:39;;;;;;;3.73;0.40;;;14.20;99.90;;;;;;4973796;28;20051;-74
2022/09/20 13:03:32;;;;;;;1.92;0.60;;;14.10;99.90;;;;;;4974963;28;20169;-73
2022/09/20 13:06:07;;;;;;;2.45;0.40;;;14.30;99.90;;;;;;4967570;28;20058;-75
2022/09/20 13:08:42;;;;;;;1.67;0.30;;;14.20;99.90;;;;;;4975037;28;20051;-72
2022/09/20 13:11:45;;;;;;;2.50;0.30;;;14.40;99.90;;;;;;4958734;28;20459;-73
2022/09/20 13:14:24;;;;;;;2.45;0.20;;;14.40;99.90;;;;;;4975179;28;20043;-72
2022/09/20 13:17:05;;;;;;;3.58;0.30;;;14.60;99.90;;;;;;4974912;28;20082;-73
2022/09/20 13:19:45;;;;;;;1.65;0.30;;;14.60;99.90;;;;;;4973708;28;20094;-74
2022/09/20 13:22:17;;;;;;;1.83;0.20;;;14.70;99.90;;;;;;4974812;28;20058;-73
2022/09/20 13:24:47;;;;;;;0.75;0.20;;;14.70;99.90;;;;;;4974144;28;20043;-72
2022/09/20 13:27:21;;;;;;;4.25;0.28;;;14.80;99.90;;;;;;4973719;28;20047;-73
2022/09/20 13:29:48;;;;;;;2.05;0.15;;;14.90;99.90;;;;;;4973098;28;20109;-72
2022/09/20 13:32:14;;;;;;;3.10;0.65;;;15.10;99.90;;;;;;4973656;28;20055;-72
2022/09/20 13:34:40;;;;;;;2.58;0.20;;;15.10;99.90;;;;;;4975010;28;20098;-74
2022/09/20 13:37:22;;;;;;;2.33;0.30;;;15.30;99.90;;;;;;4974619;28;20086;-72
2022/09/20 13:39:54;;;;;;;1.92;0.22;;;15.40;99.90;;;;;;4973752;28;20051;-73
2022/09/20 13:42:20;;;;;;;3.20;0.20;;;15.40;99.90;;;;;;4974511;28;20134;-75
2022/09/20 13:44:47;;;;;;;1.65;0.20;;;15.60;99.90;;;;;;4973534;28;20137;-72
2022/09/20 13:47:27;;;;;;;2.63;0.30;;;15.60;99.90;;;;;;4974439;28;20047;-73
2022/09/20 13:49:58;;;;;;;2.70;0.20;;;15.60;99.90;;;;;;4973503;28;20097;-73
2022/09/20 13:52:29;;;;;;;4.20;0.40;;;15.80;99.90;;;;;;4957702;28;20050;-74
2022/09/20 13:54:56;;;;;;;2.50;0.20;;;15.60;99.90;;;;;;4973549;28;20042;-76
2022/09/20 13:57:28;;;;;;;2.15;0.43;;;15.70;99.90;;;;;;4974037;28;20557;-74
2022/09/20 13:59:56;;;;;;;2.65;0.20;;;15.70;99.90;;;;;;4974471;28;20039;-74
2022/09/20 14:02:26;;;;;;;3.25;0.30;;;15.50;99.90;;;;;;4957044;28;20051;-73